Time;durP1;ratioP1;P1;durP2;ratioP2;P2;SDS_P1;SDS_P2;PMS_P1;PMS_P2;Temp;Humidity;BMP_temperature;BMP_pressure;BME280_temperature;BME280_humidity;BME280_pressure;Samples;Min_cycle;Max_cycle;Signal;HPM_P1;HPM_P2
2022/04/13 00:00:16;;;;;;;12.13;6.68;;;;;;;4.44;75.93;99155.56;6215087;23;20439;-63
2022/04/13 00:02:43;;;;;;;13.30;6.72;;;;;;;4.51;76.21;99150.50;6213424;23;20364;-64
2022/04/13 00:05:11;;;;;;;11.93;5.03;;;;;;;4.60;75.36;99153.38;6215338;23;20024;-64
2022/04/13 00:07:38;;;;;;;11.52;6.03;;;;;;;4.53;75.56;99141.94;6215556;23;20035;-64
2022/04/13 00:10:06;;;;;;;9.98;5.93;;;;;;;4.65;75.74;99156.84;6214947;23;20107;-66
2022/04/13 00:12:33;;;;;;;11.88;6.47;;;;;;;4.57;75.52;99157.56;6215567;23;20028;-70
2022/04/13 00:15:02;;;;;;;20.40;9.07;;;;;;;4.54;76.24;99155.41;6215313;23;20116;-70
2022/04/13 00:17:30;;;;;;;11.15;5.78;;;;;;;4.51;75.69;99145.00;6214871;23;20110;-71
2022/04/13 00:19:58;;;;;;;9.73;5.45;;;;;;;4.48;76.18;99151.09;6215295;23;20402;-71
2022/04/13 00:22:25;;;;;;;9.57;5.53;;;;;;;4.46;75.68;99147.84;6215292;23;20431;-71
2022/04/13 00:24:52;;;;;;;15.18;5.60;;;;;;;4.43;75.63;99153.94;6214853;23;20422;-71
2022/04/13 00:27:19;;;;;;;10.93;6.05;;;;;;;4.47;75.91;99154.97;6215194;23;20107;-71
2022/04/13 00:29:46;;;;;;;12.45;6.47;;;;;;;4.47;76.02;99149.44;6213338;23;20424;-70
2022/04/13 00:32:13;;;;;;;8.45;4.90;;;;;;;4.54;75.43;99155.41;6215071;23;20035;-72
2022/04/13 00:34:41;;;;;;;10.48;5.50;;;;;;;4.51;75.26;99150.50;6215297;23;20460;-70
2022/04/13 00:37:08;;;;;;;12.18;5.95;;;;;;;4.50;75.94;99154.34;6214982;23;20460;-71
2022/04/13 00:39:35;;;;;;;7.88;3.75;;;;;;;4.49;75.68;99140.88;6214729;23;20115;-71
2022/04/13 00:42:05;;;;;;;10.88;5.50;;;;;;;4.44;75.99;99152.81;6214983;23;20052;-70
2022/04/13 00:44:34;;;;;;;9.82;5.10;;;;;;;4.41;75.91;99150.66;6215701;23;20052;-72
2022/04/13 00:47:06;;;;;;;10.85;5.47;;;;;;;4.48;75.56;99155.78;6215057;23;20115;-72
2022/04/13 00:49:34;;;;;;;10.13;5.55;;;;;;;4.42;75.67;99157.00;6215525;23;20021;-72
2022/04/13 00:52:04;;;;;;;9.52;5.47;;;;;;;4.44;76.09;99150.06;6215109;23;20048;-72
2022/04/13 00:54:32;;;;;;;10.93;6.13;;;;;;;4.50;75.30;99151.59;6215654;23;20050;-72
2022/04/13 00:57:01;;;;;;;7.75;4.30;;;;;;;4.53;75.82;99153.75;6238795;23;20739;-70
2022/04/13 00:59:31;;;;;;;10.95;5.93;;;;;;;4.46;75.71;99153.34;6215461;23;20052;-73
2022/04/13 01:01:58;;;;;;;9.68;6.07;;;;;;;4.47;75.92;99154.16;6214698;23;20028;-71
2022/04/13 01:04:28;;;;;;;10.70;6.07;;;;;;;4.50;75.29;99151.59;6215112;23;20024;-72
2022/04/13 01:06:56;;;;;;;11.65;6.65;;;;;;;4.57;75.56;99154.81;6215066;23;20024;-72
2022/04/13 01:09:25;;;;;;;14.30;6.53;;;;;;;4.56;75.39;99147.63;6215393;23;20027;-71
2022/04/13 01:11:52;;;;;;;11.30;5.82;;;;;;;4.54;75.29;99154.56;6215300;23;20059;-72
2022/04/13 01:14:19;;;;;;;10.18;6.07;;;;;;;4.45;75.82;99148.13;6214800;23;20509;-73
2022/04/13 01:16:46;;;;;;;11.57;6.72;;;;;;;4.53;75.48;99153.75;6214956;23;20063;-74
2022/04/13 01:19:17;;;;;;;9.10;5.28;;;;;;;4.57;74.92;99156.72;6215350;23;20344;-73
2022/04/13 01:21:53;;;;;;;9.82;5.60;;;;;;;4.49;75.31;99157.41;6214577;23;20051;-72
2022/04/13 01:24:21;;;;;;;10.73;5.38;;;;;;;4.41;75.66;99156.16;6215627;23;20107;-71
2022/04/13 01:26:48;;;;;;;11.30;5.88;;;;;;;4.31;75.94;99161.03;6214971;23;20080;-72
2022/04/13 01:29:15;;;;;;;11.57;5.55;;;;;;;4.23;75.96;99157.03;6215205;23;20028;-71
2022/04/13 01:31:44;;;;;;;11.93;5.88;;;;;;;4.27;75.54;99166.34;6216939;23;20360;-71
2022/04/13 01:34:13;;;;;;;12.77;6.00;;;;;;;4.25;75.88;99156.72;6240245;23;20051;-72
2022/04/13 01:36:40;;;;;;;14.70;7.57;;;;;;;4.24;75.71;99164.19;6216678;23;20020;-72
2022/04/13 01:39:07;;;;;;;11.93;5.82;;;;;;;4.22;76.33;99158.16;6216763;23;20115;-71
2022/04/13 01:41:34;;;;;;;10.32;6.10;;;;;;;4.21;75.85;99164.78;6216679;23;20052;-72
2022/04/13 01:44:01;;;;;;;8.77;5.30;;;;;;;4.31;75.93;99167.38;6216295;23;20060;-72
2022/04/13 01:46:30;;;;;;;13.27;6.13;;;;;;;4.39;75.81;99152.91;6215200;23;20338;-72
2022/04/13 01:48:57;;;;;;;11.32;5.28;;;;;;;4.36;75.20;99164.53;6216927;23;20062;-72
2022/04/13 01:51:24;;;;;;;7.13;4.75;;;;;;;4.15;75.85;99141.22;6217186;23;20047;-65
2022/04/13 01:53:52;;;;;;;9.52;5.15;;;;;;;4.18;75.93;99156.31;6216238;23;20024;-65
2022/04/13 01:56:19;;;;;;;10.35;5.38;;;;;;;4.11;75.58;99162.19;6216657;23;20524;-63
2022/04/13 01:58:46;;;;;;;10.32;5.43;;;;;;;4.09;75.62;99169.13;6216018;23;20071;-64
2022/04/13 02:01:13;;;;;;;9.25;5.03;;;;;;;4.11;76.32;99170.44;6216215;23;20020;-64
2022/04/13 02:03:40;;;;;;;8.55;4.50;;;;;;;4.10;76.38;99177.06;6216410;23;20055;-64
2022/04/13 02:06:08;;;;;;;8.82;4.68;;;;;;;4.11;76.24;99167.69;6216824;23;20147;-64
2022/04/13 02:08:35;;;;;;;11.07;4.90;;;;;;;4.03;76.15;99175.81;6216390;23;20028;-63
2022/04/13 02:11:03;;;;;;;8.88;5.03;;;;;;;3.94;76.80;99172.94;6216073;23;20020;-63
2022/04/13 02:13:30;;;;;;;9.23;5.15;;;;;;;3.99;76.18;99170.09;6216156;23;20025;-63
2022/04/13 02:15:57;;;;;;;9.13;5.18;;;;;;;4.06;76.06;99166.97;6216510;23;20028;-64
2022/04/13 02:18:25;;;;;;;10.25;5.00;;;;;;;4.14;76.06;99178.09;6214365;23;20075;-64
2022/04/13 02:20:52;;;;;;;8.88;4.32;;;;;;;4.16;76.35;99175.88;6216525;23;20099;-64
2022/04/13 02:23:18;;;;;;;8.38;4.75;;;;;;;4.08;76.03;99187.56;6214448;23;20482;-65
2022/04/13 02:25:45;;;;;;;9.85;4.68;;;;;;;4.04;76.04;99189.28;6216428;23;20353;-64
2022/04/13 02:28:12;;;;;;;10.18;4.70;;;;;;;4.00;76.55;99191.00;6216269;23;20482;-64
2022/04/13 02:30:39;;;;;;;9.88;5.50;;;;;;;4.06;75.99;99194.50;6216332;23;20021;-65
2022/04/13 02:33:12;;;;;;;8.23;4.75;;;;;;;4.03;76.31;99193.16;6216028;23;20028;-64
2022/04/13 02:35:39;;;;;;;15.75;5.18;;;;;;;4.02;76.66;99193.47;6216191;23;20044;-63
2022/04/13 02:38:06;;;;;;;7.78;4.82;;;;;;;4.02;75.94;99201.72;6216048;23;20364;-64
2022/04/13 02:40:33;;;;;;;9.10;4.75;;;;;;;4.01;75.82;99198.13;6215934;23;20440;-63
2022/04/13 02:43:00;;;;;;;9.52;4.75;;;;;;;4.12;75.60;99202.38;6215904;23;20067;-63
2022/04/13 02:45:28;;;;;;;8.65;5.30;;;;;;;4.15;75.79;99195.44;6216122;23;20032;-64
2022/04/13 02:47:55;;;;;;;7.97;4.68;;;;;;;4.13;75.71;99209.50;6215683;23;20020;-64
2022/04/13 02:50:23;;;;;;;6.97;4.10;;;;;;;4.06;76.36;99202.75;6216077;23;20055;-64
2022/04/13 02:52:52;;;;;;;9.85;4.90;;;;;;;4.10;76.50;99209.28;6215960;23;20385;-62
2022/04/13 02:55:19;;;;;;;9.07;5.18;;;;;;;4.16;75.53;99197.91;6215818;23;20074;-63
2022/04/13 02:57:46;;;;;;;8.27;4.20;;;;;;;4.22;75.46;99204.13;6215926;23;20020;-63
2022/04/13 03:00:14;;;;;;;7.32;4.45;;;;;;;4.22;75.21;99207.72;6215589;23;20055;-63
2022/04/13 03:02:41;;;;;;;7.10;3.67;;;;;;;4.15;75.16;99209.22;6239230;23;20024;-64
2022/04/13 03:05:09;;;;;;;8.05;4.40;;;;;;;4.08;75.53;99212.31;6215979;23;20028;-63
2022/04/13 03:07:36;;;;;;;8.18;4.53;;;;;;;4.18;75.79;99203.94;6215819;23;20024;-64
2022/04/13 03:10:04;;;;;;;9.27;4.72;;;;;;;4.27;75.44;99210.41;6216252;23;20111;-64
2022/04/13 03:12:33;;;;;;;6.75;4.13;;;;;;;4.31;74.79;99224.34;6216493;23;20491;-64
2022/04/13 03:15:07;;;;;;;9.00;4.57;;;;;;;4.24;74.92;99224.75;6215547;23;20075;-63
2022/04/13 03:17:34;;;;;;;9.88;4.53;;;;;;;4.32;75.12;99224.06;6215591;23;20024;-64
2022/04/13 03:20:02;;;;;;;8.57;4.70;;;;;;;4.36;74.87;99216.84;6215677;23;20524;-63
2022/04/13 03:22:29;;;;;;;9.32;4.57;;;;;;;4.37;74.84;99220.41;6215280;23;20055;-62
2022/04/13 03:24:59;;;;;;;9.55;5.00;;;;;;;4.35;74.66;99228.97;6215707;23;20025;-63
2022/04/13 03:27:26;;;;;;;9.38;4.30;;;;;;;4.33;75.07;99227.63;6215706;23;20044;-63
2022/04/13 03:29:53;;;;;;;9.60;4.75;;;;;;;4.34;75.49;99227.34;6215694;23;20349;-65
2022/04/13 03:32:21;;;;;;;6.88;4.15;;;;;;;4.40;75.20;99231.66;6215947;23;20063;-65
2022/04/13 03:34:47;;;;;;;8.73;5.03;;;;;;;4.46;74.79;99244.22;6215685;23;20028;-63
2022/04/13 03:37:14;;;;;;;10.15;4.97;;;;;;;4.43;75.08;99231.03;6215175;23;20107;-64
2022/04/13 03:39:42;;;;;;;9.98;4.32;;;;;;;4.46;74.26;99240.63;6215568;23;20043;-63
2022/04/13 03:42:09;;;;;;;9.73;4.95;;;;;;;4.29;74.64;99238.44;6215472;23;20024;-63
2022/04/13 03:44:35;;;;;;;8.43;4.53;;;;;;;4.25;75.77;99253.91;6216194;23;20444;-64
2022/04/13 03:47:03;;;;;;;9.85;5.38;;;;;;;4.29;75.03;99241.19;6215509;23;20028;-65
2022/04/13 03:49:30;;;;;;;10.55;5.05;;;;;;;4.31;75.11;99241.72;6215823;23;20024;-63
2022/04/13 03:51:57;;;;;;;10.98;4.95;;;;;;;4.40;75.41;99239.91;6214166;23;20051;-63
2022/04/13 03:54:24;;;;;;;13.80;5.45;;;;;;;4.47;75.05;99247.78;6215496;23;20445;-64
2022/04/13 03:56:53;;;;;;;11.10;4.70;;;;;;;4.51;74.46;99244.16;6214961;23;20476;-65
2022/04/13 03:59:22;;;;;;;11.52;5.35;;;;;;;4.42;74.52;99256.97;6215434;23;20086;-64
2022/04/13 04:01:49;;;;;;;10.45;5.65;;;;;;;4.31;75.30;99238.94;6215342;23;20021;-64
2022/04/13 04:04:16;;;;;;;9.27;5.13;;;;;;;4.38;74.89;99249.59;6215243;23;20055;-64
2022/04/13 04:06:43;;;;;;;9.60;4.97;;;;;;;4.39;75.11;99249.28;6215215;23;20025;-64
2022/04/13 04:09:10;;;;;;;9.00;4.88;;;;;;;4.41;75.28;99255.31;6215051;23;20028;-64
2022/04/13 04:11:37;;;;;;;7.35;4.35;;;;;;;4.46;75.17;99257.97;6215316;23;20016;-64
2022/04/13 04:14:04;;;;;;;10.15;4.93;;;;;;;4.51;74.11;99255.16;6214641;23;20042;-63
2022/04/13 04:16:31;;;;;;;7.13;4.70;;;;;;;4.50;74.98;99255.47;6215671;23;20052;-63
2022/04/13 04:18:58;;;;;;;12.13;5.45;;;;;;;4.41;74.44;99244.28;6215254;23;20066;-64
2022/04/13 04:21:25;;;;;;;8.68;4.60;;;;;;;4.34;74.81;99259.56;6214788;23;20020;-63
2022/04/13 04:23:52;;;;;;;8.18;4.15;;;;;;;4.35;74.94;99262.00;6215019;23;20035;-64
2022/04/13 04:26:19;;;;;;;6.57;3.83;;;;;;;4.29;74.67;99257.69;6215423;23;20051;-66
2022/04/13 04:28:46;;;;;;;8.52;4.75;;;;;;;4.21;74.89;99255.63;6214751;23;20422;-65
2022/04/13 04:31:15;;;;;;;10.57;5.63;;;;;;;4.27;75.40;99265.47;6214852;23;20021;-64
2022/04/13 04:33:42;;;;;;;9.75;5.13;;;;;;;4.29;75.25;99260.44;6215379;23;20028;-71
2022/04/13 04:36:10;;;;;;;9.13;4.95;;;;;;;4.25;75.25;99267.69;6215718;23;20044;-71
2022/04/13 04:38:37;;;;;;;15.18;5.50;;;;;;;4.26;74.63;99265.75;6215128;23;20463;-71
2022/04/13 04:41:05;;;;;;;11.90;5.65;;;;;;;4.41;74.81;99269.06;6215325;23;20031;-71
2022/04/13 04:43:32;;;;;;;8.30;4.60;;;;;;;4.43;74.54;99274.28;6215310;23;20035;-71
2022/04/13 04:45:59;;;;;;;9.20;4.65;;;;;;;4.34;74.53;99276.91;6215382;23;20108;-72
2022/04/13 04:48:27;;;;;;;10.73;5.18;;;;;;;4.37;74.26;99265.28;6238478;23;20029;-72
2022/04/13 04:50:53;;;;;;;11.15;5.13;;;;;;;4.47;74.32;99267.88;6215173;23;20021;-72
2022/04/13 04:53:25;;;;;;;11.23;4.60;;;;;;;4.57;73.93;99276.00;6213219;23;20108;-72
2022/04/13 04:55:52;;;;;;;8.38;4.55;;;;;;;4.57;74.69;99267.72;6215791;23;20057;-73
2022/04/13 04:58:19;;;;;;;8.07;4.15;;;;;;;4.56;73.92;99274.34;6214795;23;20470;-73
2022/04/13 05:00:46;;;;;;;8.95;4.80;;;;;;;4.55;74.18;99267.19;6214981;23;20025;-71
2022/04/13 05:03:13;;;;;;;8.27;5.00;;;;;;;4.68;73.62;99276.66;6214954;23;20107;-73
2022/04/13 05:05:41;;;;;;;8.23;4.03;;;;;;;4.69;73.23;99283.78;6217580;23;20514;-72
2022/04/13 05:08:08;;;;;;;11.02;5.18;;;;;;;4.61;73.83;99288.03;6217559;23;20031;-72
2022/04/13 05:10:35;;;;;;;15.70;5.35;;;;;;;4.67;73.44;99286.84;6216761;23;20099;-72
2022/04/13 05:13:06;;;;;;;9.25;4.85;;;;;;;4.56;73.82;99279.84;6215567;22;20342;-71
2022/04/13 05:15:37;;;;;;;9.98;4.95;;;;;;;4.63;73.87;99274.78;6191469;23;20024;-73
2022/04/13 05:18:06;;;;;;;9.00;5.03;;;;;;;4.73;73.78;99285.63;6216009;23;20416;-73
2022/04/13 05:20:46;;;;;;;10.55;4.88;;;;;;;4.70;73.07;99296.44;6217524;23;20029;-65
2022/04/13 05:23:22;;;;;;;12.02;4.38;;;;;;;4.36;73.34;99252.66;6216801;22;20079;-71
2022/04/13 05:26:01;;;;;;;10.10;5.50;;;;;;;4.55;73.24;99294.75;6216851;23;20048;-66
2022/04/13 05:28:36;;;;;;;10.70;4.65;;;;;;;4.59;73.60;99301.28;6216718;23;20048;-65
2022/04/13 05:31:03;;;;;;;11.95;5.50;;;;;;;4.57;73.11;99287.00;6217194;23;20108;-66
2022/04/13 05:33:33;;;;;;;10.82;5.47;;;;;;;4.63;73.61;99290.50;6215272;23;20047;-71
2022/04/13 05:36:00;;;;;;;14.88;5.93;;;;;;;4.82;73.32;99305.88;6217362;23;20052;-73
2022/04/13 05:38:27;;;;;;;11.68;4.95;;;;;;;4.84;72.88;99303.66;6216630;23;20028;-73
2022/04/13 05:40:55;;;;;;;12.10;6.28;;;;;;;4.87;72.68;99305.78;6212629;23;20024;-74
2022/04/13 05:43:22;;;;;;;11.00;4.90;;;;;;;4.94;72.37;99300.69;6215677;23;20051;-73
2022/04/13 05:45:49;;;;;;;15.73;5.95;;;;;;;5.01;72.74;99314.91;6216681;23;20063;-74
2022/04/13 05:48:16;;;;;;;8.38;4.32;;;;;;;5.01;72.50;99314.09;6216819;23;20024;-73
2022/04/13 05:50:43;;;;;;;11.85;5.95;;;;;;;4.98;72.53;99315.50;6216483;23;20028;-72
2022/04/13 05:53:10;;;;;;;13.43;6.55;;;;;;;4.99;72.72;99317.16;6216140;23;20423;-74
2022/04/13 05:55:37;;;;;;;11.40;5.55;;;;;;;4.90;72.73;99310.72;6217228;23;20020;-73
2022/04/13 05:58:04;;;;;;;12.32;5.50;;;;;;;4.84;72.43;99322.94;6216357;23;20099;-73
2022/04/13 06:00:31;;;;;;;12.93;6.57;;;;;;;4.91;72.97;99319.78;6216485;23;20021;-72
2022/04/13 06:02:58;;;;;;;10.30;5.78;;;;;;;5.07;72.34;99329.44;6216344;23;20119;-73
2022/04/13 06:05:26;;;;;;;15.07;7.05;;;;;;;5.11;72.01;99328.53;6216272;23;20040;-73
2022/04/13 06:07:54;;;;;;;14.32;6.45;;;;;;;5.10;72.15;99324.13;6216587;23;20060;-74
2022/04/13 06:10:22;;;;;;;13.32;6.78;;;;;;;5.16;71.96;99336.72;6215222;23;20364;-73
2022/04/13 06:12:49;;;;;;;17.63;6.57;;;;;;;5.23;71.29;99331.63;6216850;23;20078;-73
2022/04/13 06:15:17;;;;;;;14.40;5.97;;;;;;;5.27;71.23;99335.41;6216311;23;20103;-66
2022/04/13 06:17:53;;;;;;;14.30;6.80;;;;;;;5.32;71.37;99337.25;6214921;23;20028;-66
2022/04/13 06:20:25;;;;;;;12.63;6.07;;;;;;;5.21;71.06;99336.63;6216706;23;20318;-73
2022/04/13 06:22:56;;;;;;;22.38;6.32;;;;;;;5.18;71.68;99334.47;6216530;23;20032;-66
2022/04/13 06:25:24;;;;;;;12.20;6.18;;;;;;;5.36;71.18;99341.06;6214797;23;20031;-65
2022/04/13 06:27:52;;;;;;;14.05;5.47;;;;;;;5.17;71.46;99313.53;6216958;22;20345;-67
2022/04/13 06:30:27;;;;;;;11.60;5.68;;;;;;;5.22;70.80;99332.75;6216796;23;20020;-76
2022/04/13 06:32:55;;;;;;;9.15;4.82;;;;;;;5.18;70.51;99345.50;6214736;23;20452;-65
2022/04/13 06:35:23;;;;;;;15.77;6.60;;;;;;;5.00;70.87;99321.53;6215334;23;20031;-73
2022/04/13 06:37:56;;;;;;;10.65;4.97;;;;;;;5.12;71.61;99352.22;6216228;23;20024;-66
2022/04/13 06:40:24;;;;;;;12.85;3.67;;;;;;;5.04;71.52;99333.59;6215769;23;20103;-65
2022/04/13 06:43:08;;;;;;;9.25;5.30;;;;;;;4.95;70.97;99360.22;6212150;23;20091;-65
2022/04/13 06:45:36;;;;;;;15.75;6.55;;;;;;;5.06;70.73;99364.44;6215680;23;20516;-63
2022/04/13 06:48:04;;;;;;;12.48;5.28;;;;;;;5.19;71.33;99368.38;6216029;23;20025;-66
2022/04/13 06:50:34;;;;;;;12.35;4.80;;;;;;;5.15;70.95;99365.41;6216175;23;20021;-64
2022/04/13 06:53:01;;;;;;;10.20;5.82;;;;;;;5.26;70.49;99364.09;6215528;23;20402;-65
2022/04/13 06:55:28;;;;;;;11.25;5.30;;;;;;;5.36;70.34;99369.44;6213979;23;20479;-64
2022/04/13 06:57:55;;;;;;;10.38;5.50;;;;;;;5.48;70.88;99380.81;6215777;23;20087;-64
2022/04/13 07:00:22;;;;;;;14.40;5.90;;;;;;;5.55;69.85;99372.97;6214845;23;20024;-65
2022/04/13 07:02:49;;;;;;;17.95;5.60;;;;;;;5.55;69.79;99367.44;6215695;23;20031;-65
2022/04/13 07:05:37;;;;;;;17.35;5.40;;;;;;;5.56;70.36;99376.53;6215455;23;20020;-65
2022/04/13 07:08:05;;;;;;;14.13;7.05;;;;;;;5.52;69.67;99387.38;6215522;23;20028;-65
2022/04/13 07:10:33;;;;;;;12.38;5.50;;;;;;;5.48;69.58;99385.53;6216187;23;20409;-66
2022/04/13 07:13:07;;;;;;;12.40;5.00;;;;;;;5.40;70.25;99388.97;6215618;23;20033;-66
2022/04/13 07:15:34;;;;;;;9.75;5.45;;;;;;;5.32;70.15;99386.88;6215925;23;20021;-65
2022/04/13 07:18:01;;;;;;;10.70;5.70;;;;;;;5.17;70.60;99387.97;6215570;23;20028;-71
2022/04/13 07:20:28;;;;;;;14.73;6.20;;;;;;;5.23;70.83;99386.78;6213863;23;20456;-74
2022/04/13 07:22:55;;;;;;;14.75;4.68;;;;;;;5.19;70.73;99388.50;6213756;23;20115;-73
2022/04/13 07:25:23;;;;;;;17.35;5.57;;;;;;;5.18;70.37;99395.13;6215645;23;20075;-73
2022/04/13 07:27:51;;;;;;;13.07;6.00;;;;;;;5.28;70.39;99392.22;6215707;23;20060;-73
2022/04/13 07:30:18;;;;;;;14.18;5.97;;;;;;;5.38;69.84;99393.94;6213992;23;20028;-73
2022/04/13 07:32:47;;;;;;;11.68;5.22;;;;;;;5.39;69.58;99399.16;6216177;23;20457;-73
2022/04/13 07:35:14;;;;;;;11.25;6.28;;;;;;;5.46;70.05;99405.13;6215702;23;20074;-74
2022/04/13 07:37:43;;;;;;;10.25;5.47;;;;;;;5.60;70.03;99397.69;6215710;23;20067;-72
2022/04/13 07:40:12;;;;;;;16.23;6.68;;;;;;;5.72;69.14;99396.38;6215858;23;20055;-73
2022/04/13 07:42:40;;;;;;;16.20;6.83;;;;;;;5.84;69.12;99392.03;6213805;23;20025;-73
2022/04/13 07:45:08;;;;;;;20.35;6.30;;;;;;;6.04;69.30;99399.09;6216073;23;20111;-73
2022/04/13 07:47:36;;;;;;;12.25;5.93;;;;;;;6.15;68.82;99400.53;6215627;23;20028;-71
2022/04/13 07:50:05;;;;;;;11.45;5.55;;;;;;;6.12;68.88;99407.47;6215565;23;20029;-72
2022/04/13 07:52:34;;;;;;;14.40;6.65;;;;;;;6.23;68.60;99413.63;6215263;23;20472;-73
2022/04/13 07:55:02;;;;;;;15.07;6.00;;;;;;;6.38;67.84;99410.53;6215523;23;20512;-72
2022/04/13 07:57:29;;;;;;;10.13;5.13;;;;;;;6.41;68.10;99410.75;6216551;23;20508;-73
2022/04/13 07:59:56;;;;;;;13.15;5.32;;;;;;;6.36;68.10;99408.09;6215179;23;20059;-72
2022/04/13 08:02:23;;;;;;;10.90;5.63;;;;;;;6.44;67.56;99420.34;6215233;23;20107;-73
2022/04/13 08:04:50;;;;;;;12.00;5.88;;;;;;;6.60;67.54;99416.16;6216113;23;20021;-73
2022/04/13 08:07:17;;;;;;;11.48;5.43;;;;;;;6.67;67.49;99419.31;6215424;23;20062;-72
2022/04/13 08:09:44;;;;;;;14.73;5.35;;;;;;;6.38;67.74;99413.31;6215408;23;20043;-72
2022/04/13 08:12:13;;;;;;;17.88;7.18;;;;;;;6.24;68.28;99421.59;6215124;23;20032;-73
2022/04/13 08:14:40;;;;;;;10.90;5.75;;;;;;;6.30;68.47;99425.06;6215237;23;20122;-72
2022/04/13 08:17:07;;;;;;;15.65;5.47;;;;;;;6.22;68.21;99418.31;6215390;23;20415;-73
2022/04/13 08:19:34;;;;;;;19.02;6.22;;;;;;;6.24;67.93;99423.53;6214953;23;20482;-73
2022/04/13 08:22:01;;;;;;;12.00;5.05;;;;;;;6.04;68.37;99424.75;6215590;23;20046;-72
2022/04/13 08:24:29;;;;;;;11.27;5.00;;;;;;;5.95;68.26;99417.50;6214992;23;20020;-74
2022/04/13 08:26:58;;;;;;;12.80;5.55;;;;;;;5.87;68.83;99426.50;6214817;23;20024;-72
2022/04/13 08:29:26;;;;;;;12.45;5.72;;;;;;;5.97;68.80;99432.63;6215736;23;20330;-73
2022/04/13 08:31:53;;;;;;;11.60;5.32;;;;;;;6.11;68.70;99427.13;6215156;23;20023;-73
2022/04/13 08:34:20;;;;;;;9.70;5.47;;;;;;;6.11;67.88;99424.34;6215248;23;20075;-73
2022/04/13 08:36:47;;;;;;;14.40;6.35;;;;;;;6.26;68.18;99424.88;6215205;23;20531;-74
2022/04/13 08:39:14;;;;;;;14.65;6.05;;;;;;;6.20;68.00;99426.09;6214667;23;20111;-72
2022/04/13 08:41:50;;;;;;;15.38;6.13;;;;;;;6.31;67.70;99426.72;6214978;23;20078;-72
2022/04/13 08:44:36;;;;;;;13.25;5.22;;;;;;;6.26;67.65;99421.28;6214730;23;20075;-72
2022/04/13 08:47:10;;;;;;;12.00;5.82;;;;;;;6.07;68.23;99428.88;6213108;23;20048;-72
2022/04/13 08:49:39;;;;;;;16.27;5.75;;;;;;;6.10;68.08;99431.03;6215565;23;20055;-71
2022/04/13 08:52:08;;;;;;;13.25;5.45;;;;;;;6.18;68.28;99431.13;6214935;23;20107;-72
2022/04/13 08:54:44;;;;;;;11.45;5.32;;;;;;;6.28;68.09;99432.88;6214746;23;20524;-72
2022/04/13 08:57:15;;;;;;;10.98;4.88;;;;;;;6.38;67.78;99441.75;6214867;23;20056;-73
2022/04/13 09:00:02;;;;;;;11.18;5.38;;;;;;;6.49;67.30;99425.78;6214939;23;20035;-71
2022/04/13 09:02:38;;;;;;;9.98;5.10;;;;;;;6.39;67.60;99435.09;6214814;23;20070;-72
2022/04/13 09:05:12;;;;;;;10.07;4.75;;;;;;;6.33;67.81;99432.72;6215267;23;20445;-72
2022/04/13 09:07:41;;;;;;;11.65;5.15;;;;;;;6.37;67.58;99431.00;6214451;23;20055;-74
2022/04/13 09:10:16;;;;;;;10.90;5.38;;;;;;;6.52;67.21;99441.75;6215656;23;20031;-71
2022/04/13 09:12:43;;;;;;;19.10;6.88;;;;;;;6.71;67.26;99447.94;6214902;23;20025;-73
2022/04/13 09:15:12;;;;;;;11.13;4.93;;;;;;;6.70;67.04;99449.09;6214966;23;20024;-74
2022/04/13 09:17:40;;;;;;;15.60;5.00;;;;;;;6.55;67.42;99449.41;6214522;23;20024;-71
2022/04/13 09:20:09;;;;;;;13.57;4.72;;;;;;;6.52;67.34;99453.63;6215213;23;20020;-73
2022/04/13 09:22:37;;;;;;;7.97;4.20;;;;;;;6.62;67.36;99456.16;6212800;23;20024;-71
2022/04/13 09:25:07;;;;;;;10.43;4.40;;;;;;;6.70;66.86;99447.16;6214804;23;20029;-71
2022/04/13 09:27:36;;;;;;;14.45;6.03;;;;;;;6.80;66.66;99451.63;6214305;23;20028;-73
2022/04/13 09:30:08;;;;;;;13.77;5.10;;;;;;;6.86;66.51;99450.38;6214518;23;20078;-72
2022/04/13 09:32:35;;;;;;;13.50;5.78;;;;;;;6.88;66.93;99459.19;6215813;23;20504;-73
2022/04/13 09:35:03;;;;;;;14.30;6.07;;;;;;;6.98;66.76;99458.97;6214643;23;20024;-72
2022/04/13 09:37:31;;;;;;;10.13;5.40;;;;;;;7.02;66.82;99454.47;6215068;23;20508;-72
2022/04/13 09:39:59;;;;;;;13.38;5.43;;;;;;;6.90;66.76;99452.22;6215168;23;20024;-72
2022/04/13 09:42:28;;;;;;;12.57;5.85;;;;;;;6.86;66.99;99450.38;6214849;23;20100;-72
2022/04/13 09:44:57;;;;;;;12.30;5.70;;;;;;;6.92;66.54;99454.66;6215092;23;20047;-71
2022/04/13 09:47:33;;;;;;;13.10;5.60;;;;;;;6.84;66.81;99460.97;6215359;23;20024;-73
2022/04/13 09:50:00;;;;;;;10.93;4.40;;;;;;;6.74;66.75;99463.91;6214832;23;20021;-72
2022/04/13 09:52:38;;;;;;;10.15;4.80;;;;;;;6.60;67.79;99468.66;6216341;23;20392;-73
2022/04/13 09:55:07;;;;;;;12.68;5.30;;;;;;;6.50;67.26;99460.56;6216387;23;20025;-72
2022/04/13 09:57:34;;;;;;;13.95;4.55;;;;;;;6.41;67.63;99448.59;6216328;23;20111;-72
2022/04/13 10:00:06;;;;;;;12.68;4.60;;;;;;;6.26;68.17;99468.25;6216562;23;20047;-72
2022/04/13 10:02:41;;;;;;;12.73;5.18;;;;;;;6.10;68.18;99475.19;6216332;23;20419;-73
2022/04/13 10:05:14;;;;;;;13.05;5.97;;;;;;;6.20;68.61;99472.22;6216362;23;20028;-72
2022/04/13 10:07:41;;;;;;;14.02;5.88;;;;;;;6.34;67.77;99467.53;6216345;23;20029;-72
2022/04/13 10:10:28;;;;;;;14.35;5.82;;;;;;;6.25;67.99;99469.38;6216481;23;20104;-72
2022/04/13 10:12:55;;;;;;;8.30;4.38;;;;;;;6.21;68.58;99471.94;6214882;23;20020;-72
2022/04/13 10:15:22;;;;;;;10.95;5.28;;;;;;;6.16;68.73;99472.00;6216069;23;20465;-72
2022/04/13 10:17:49;;;;;;;12.02;3.95;;;;;;;6.05;68.89;99473.34;6216290;23;20024;-73
2022/04/13 10:20:16;;;;;;;11.95;4.75;;;;;;;5.99;69.15;99470.97;6216865;23;20488;-72
2022/04/13 10:23:01;;;;;;;12.63;5.60;;;;;;;6.10;68.57;99470.47;6216473;23;20024;-71
2022/04/13 10:25:28;;;;;;;13.50;5.60;;;;;;;6.20;68.56;99475.81;6215956;23;20025;-72
2022/04/13 10:28:00;;;;;;;11.95;4.50;;;;;;;6.25;68.20;99475.69;6215485;23;20028;-72
2022/04/13 10:30:32;;;;;;;12.35;5.57;;;;;;;6.20;67.88;99464.78;6215975;23;20107;-72
2022/04/13 10:33:17;;;;;;;13.45;4.85;;;;;;;6.08;68.52;99475.50;6216407;23;20025;-71
2022/04/13 10:35:45;;;;;;;16.40;5.93;;;;;;;6.11;68.46;99482.34;6216153;23;20050;-72
2022/04/13 10:38:12;;;;;;;11.95;5.97;;;;;;;6.26;68.49;99484.81;6215326;23;20444;-70
2022/04/13 10:40:41;;;;;;;11.73;5.93;;;;;;;6.50;68.02;99474.38;6215641;23;20020;-66
2022/04/13 10:43:12;;;;;;;15.88;6.82;;;;;;;6.55;67.85;99479.81;6215540;23;20027;-63
2022/04/13 10:45:45;;;;;;;13.98;5.43;;;;;;;6.36;68.33;99473.56;6215887;23;20032;-64
2022/04/13 10:48:22;;;;;;;19.70;5.75;;;;;;;6.24;68.75;99487.06;6215660;23;20123;-64
2022/04/13 10:51:00;;;;;;;11.85;5.80;;;;;;;6.36;68.35;99484.59;6216140;23;20051;-65
2022/04/13 10:53:38;;;;;;;20.05;6.93;;;;;;;6.39;68.36;99495.03;6215239;23;20094;-65
2022/04/13 10:56:06;;;;;;;15.15;7.28;;;;;;;6.48;68.27;99490.47;6216039;23;20024;-71
2022/04/13 10:58:55;;;;;;;12.55;5.55;;;;;;;6.46;68.04;99484.44;6214751;23;20412;-71
2022/04/13 11:01:24;;;;;;;13.32;6.25;;;;;;;6.41;68.21;99492.81;6214992;23;20031;-64
2022/04/13 11:03:53;;;;;;;15.80;4.88;;;;;;;6.41;68.14;99498.34;6214984;23;20159;-66
2022/04/13 11:06:22;;;;;;;12.30;6.40;;;;;;;6.26;68.82;99493.09;6215654;23;20055;-64
2022/04/13 11:09:00;;;;;;;14.02;6.40;;;;;;;6.19;68.61;99490.75;6214051;23;20044;-64
2022/04/13 11:11:29;;;;;;;15.35;7.28;;;;;;;6.15;68.87;99494.41;6215389;23;20063;-63
2022/04/13 11:13:56;;;;;;;11.98;6.57;;;;;;;6.17;68.93;99497.69;6215396;23;20029;-64
2022/04/13 11:16:25;;;;;;;13.25;6.03;;;;;;;6.27;68.55;99497.50;6215859;23;20028;-64
2022/04/13 11:19:04;;;;;;;18.42;6.97;;;;;;;6.36;69.07;99492.91;6215688;23;20344;-73
2022/04/13 11:21:55;;;;;;;14.27;6.90;;;;;;;6.40;68.65;99499.47;6215842;23;20020;-72
2022/04/13 11:24:35;;;;;;;16.70;5.45;;;;;;;6.20;69.13;99503.44;6214782;23;20063;-72
2022/04/13 11:27:03;;;;;;;;;;;;;;;6.00;69.25;99503.81;6215385;23;20060;-71
2022/04/13 11:29:44;;;;;;;9.55;5.40;;;;;;;6.01;69.44;99504.63;6215217;23;20233;-71
2022/04/13 11:32:16;;;;;;;11.98;5.97;;;;;;;6.03;68.91;99507.91;6215482;23;20020;-71
2022/04/13 11:34:44;;;;;;;12.73;5.72;;;;;;;5.94;69.37;99512.47;6214561;23;20032;-71
2022/04/13 11:37:24;;;;;;;11.00;6.15;;;;;;;5.98;68.82;99511.56;6215064;23;20031;-70
2022/04/13 11:40:10;;;;;;;9.80;5.20;;;;;;;5.95;69.23;99511.38;6215104;23;20063;-71
2022/04/13 11:42:40;;;;;;;10.20;5.28;;;;;;;5.97;69.53;99517.41;6215179;23;20103;-72
2022/04/13 11:45:12;;;;;;;9.02;4.95;;;;;;;6.03;69.08;99510.66;6215070;23;20449;-72